Latest Weather Observations for Paraburdoo

IDW60801

Issued at 7:32 pm WST Monday 4 May 2015 (issued every 30 minutes, with the page automatically refreshed every 10 minutes)

About weather observations | Map of weather stations | Latest weather observations for WA | Other Formats
Station Details ID: 007185 Name: PARABURDOO AERO Lat: -23.17 Lon: 117.75 Height: 423.7 m
Data from the previous 72 hours. | See also: Recent months at Paraburdoo
Date/Time
WST
Temp
°C
App
Temp
°C
Dew
Point
Rel
Hum
%
Delta-T
°C
Wind Press
QNH
hPa
Press
MSL
hPa
Rain
since 9 am
mm
Dir
 
Spd
km/h
Gust
km/h
Spd
kts
Gust
kts
04/07:30pm 20.7 18.1 9.3 48 6.2 SSE 13 17 7 9 1020.6 1018.8 0.0
04/07:00pm 21.4 18.6 9.9 48 6.3 S 15 19 8 10 1020.2 1018.4 0.0
04/06:30pm 21.6 19.3 10.4 49 6.2 S 13 17 7 9 1019.7 1017.9 0.0
04/06:00pm 22.3 20.0 10.5 47 6.6 S 13 20 7 11 1019.4 1017.6 0.0
04/05:30pm 23.1 20.1 10.5 45 7.1 S 17 22 9 12 1019.2 1017.3 0.0
04/05:00pm 23.8 20.3 10.1 42 7.7 S 19 28 10 15 1018.9 1017.0 0.0
04/04:30pm 24.2 20.4 9.8 40 8.0 S 20 28 11 15 1018.7 1016.8 0.0
04/04:00pm 24.6 21.1 10.1 40 8.1 S 19 26 10 14 1018.6 1016.7 0.0
04/03:30pm 24.6 21.1 10.1 40 8.1 S 19 30 10 16 1018.4 1016.6 0.0
04/03:00pm 24.8 21.1 10.3 40 8.2 S 20 32 11 17 1018.4 1016.6 0.0
04/02:30pm 24.9 21.5 11.1 42 7.9 SSE 20 30 11 16 1018.3 1016.5 0.0
04/02:00pm 24.4 20.2 11.0 43 7.6 S 24 32 13 17 1018.4 1016.6 0.0
04/01:30pm 24.5 21.6 11.1 43 7.7 SSE 17 28 9 15 1018.4 1016.6 0.0
04/01:00pm 24.5 21.2 11.5 44 7.5 SSE 20 32 11 17 1018.9 1017.0 0.0
04/12:30pm 24.2 20.2 11.9 46 7.1 S 24 35 13 19 1019.2 1017.3 0.0
04/12:00pm 23.7 20.4 11.7 47 6.9 SSE 20 28 11 15 1019.8 1018.0 0.0
04/11:30am 23.6 19.9 11.6 47 6.9 SSE 22 30 12 16 1020.2 1018.4 0.0
04/11:00am 23.1 19.3 12.4 51 6.2 S 24 32 13 17 1020.3 1018.5 0.0
04/10:30am 22.3 19.5 13.1 56 5.4 SSE 20 30 11 16 1020.4 1018.6 0.0
04/10:00am 22.2 18.7 13.5 57 5.1 S 24 33 13 18 1020.4 1018.6 0.0
04/09:30am 21.2 17.7 13.4 61 4.6 SSE 24 35 13 19 1020.3 1018.5 0.0
04/09:00am 20.8 17.4 13.7 64 4.2 S 24 35 13 19 1020.3 1018.5 0.0
04/08:30am 19.8 17.5 14.6 72 3.1 S 20 30 11 16 1020.0 1018.2 0.0
04/08:00am 18.6 20.8 16.6 88 1.2 CALM 0 0 0 0 1019.9 1018.1 0.0
04/07:30am 16.9 19.2 16.7 99 0.1 CALM 0 0 0 0 1019.5 1017.7 0.0
04/07:00am 14.7 16.2 14.7 100 0.0 CALM 0 0 0 0 1019.0 1017.1 0.0
04/06:30am 13.9 14.4 13.9 100 0.0 NNE 4 7 2 4 1018.6 1016.7 0.0
04/06:00am 13.8 13.3 13.8 100 0.0 NNE 9 11 5 6 1018.2 1016.4 0.0
04/05:30am 14.1 14.1 14.1 100 0.0 NE 7 9 4 5 1018.0 1016.2 0.0
04/05:00am 14.1 14.1 14.1 100 0.0 NE 7 9 4 5 1017.7 1015.9 0.0
04/04:30am 14.4 14.1 14.4 100 0.0 NE 9 9 5 5 1017.7 1015.9 0.0
04/04:00am 14.7 15.1 14.7 100 0.0 ENE 6 7 3 4 1017.6 1015.8 0.0
04/03:30am 14.8 15.2 14.8 100 0.0 ENE 6 6 3 3 1017.3 1015.5 0.0
04/03:00am 15.1 15.4 15.1 100 0.0 NE 7 7 4 4 1017.2 1015.3 0.0
04/02:30am 15.3 17.0 15.3 100 0.0 CALM 0 0 0 0 1017.1 1015.2 0.0
04/02:00am 15.5 17.2 15.3 99 0.1 CALM 0 0 0 0 1017.2 1015.3 0.0
04/01:30am 15.9 17.8 15.7 99 0.1 CALM 0 0 0 0 1017.2 1015.3 0.0
04/01:00am 16.2 16.9 16.0 99 0.1 N 7 9 4 5 1017.4 1015.6 0.0
04/12:30am 16.3 17.0 16.1 99 0.1 N 7 7 4 4 1017.7 1015.9 0.0
04/12:00am 16.7 18.1 16.5 99 0.1 N 4 7 2 4 1017.7 1015.9 0.0
 
Date/Time
WST
Temp
°C
App
Temp
°C
Dew
Point
Rel
Hum
%
Delta-T
°C
Wind Press
QNH
hPa
Press
MSL
hPa
Rain
since 9 am
mm
Dir
 
Spd
km/h
Gust
km/h
Spd
kts
Gust
kts
03/11:30pm 17.1 19.5 16.9 99 0.1 CALM 0 0 0 0 1017.8 1016.0 0.0
03/11:00pm 17.5 18.7 17.3 99 0.1 NE 7 9 4 5 1017.8 1016.0 0.0
03/10:30pm 17.9 20.2 17.7 99 0.1 NE 2 6 1 3 1017.9 1016.1 0.0
03/10:00pm 18.1 20.8 17.8 98 0.2 CALM 0 0 0 0 1017.9 1016.1 0.0
03/09:30pm 18.8 21.8 18.5 98 0.2 CALM 0 0 0 0 1017.9 1016.1 0.0
03/09:00pm 19.3 21.2 19.0 98 0.2 NNE 7 9 4 5 1017.7 1015.9 0.0
03/08:30pm 19.9 23.4 19.6 98 0.2 CALM 0 0 0 0 1017.4 1015.6 0.0
03/08:00pm 20.6 23.8 18.9 90 1.1 CALM 0 0 0 0 1017.1 1015.2 0.0
03/07:30pm 20.8 23.9 18.7 88 1.3 CALM 0 0 0 0 1016.8 1014.9 0.0
03/07:00pm 21.8 24.2 17.0 74 3.0 CALM 0 0 0 0 1016.3 1014.4 0.0
03/06:30pm 22.5 24.3 15.4 64 4.3 CALM 0 0 0 0 1015.8 1014.0 0.0
03/06:00pm 23.3 24.3 15.4 61 4.8 SSW 4 6 2 3 1015.4 1013.6 0.0
03/05:30pm 24.1 23.5 14.5 55 5.8 SSW 11 15 6 8 1015.1 1013.2 0.0
03/05:00pm 24.6 23.5 13.2 49 6.7 S 11 15 6 8 1014.9 1013.0 0.0
03/04:30pm 25.3 24.8 15.0 53 6.3 SW 11 17 6 9 1014.7 1012.8 0.0
03/04:00pm 25.9 26.3 16.2 55 6.1 SSW 9 15 5 8 1014.6 1012.7 0.0
03/03:30pm 25.5 25.2 15.5 54 6.2 WSW 11 17 6 9 1014.6 1012.7 0.0
03/03:00pm 25.9 26.8 16.5 56 5.9 WSW 7 15 4 8 1014.7 1012.8 0.0
03/02:30pm 25.0 26.0 16.4 59 5.4 W 6 11 3 6 1014.9 1013.0 0.0
03/02:00pm 24.8 25.8 16.8 61 5.0 W 7 13 4 7 1015.1 1013.2 0.0
03/01:30pm 24.1 24.6 17.4 66 4.2 WSW 11 20 6 11 1015.2 1013.4 0.0
03/01:00pm 23.2 23.4 17.6 71 3.5 WSW 13 19 7 10 1015.5 1013.7 0.0
03/12:30pm 23.3 23.3 18.0 72 3.4 WSW 15 19 8 10 1015.7 1013.9 0.0
03/12:00pm 23.0 23.5 18.3 75 3.0 WSW 13 19 7 10 1016.2 1014.3 0.0
03/11:35am 22.6 23.6 18.6 78 2.6 W 11 15 6 8 1016.4 1014.5 0.0
03/11:30am 22.7 23.8 18.9 79 2.4 W 11 17 6 9 1016.5 1014.6 0.0
03/11:00am 22.0 23.4 19.5 86 1.6 SW 11 15 6 8 1016.7 1014.8 0.0
03/10:30am 22.0 24.3 19.9 88 1.4 WSW 7 11 4 6 1016.8 1014.9 0.0
03/10:00am 21.6 24.1 20.2 92 0.9 SW 7 11 4 6 1016.9 1015.0 0.0
03/09:30am 20.8 23.4 20.5 98 0.2 SW 7 11 4 6 1017.0 1015.1 0.0
03/09:13am 20.4 23.1 20.2 99 0.1 S 6 9 3 5 1016.9 1015.0 0.0
03/09:00am 20.0 22.5 19.8 99 0.1 SSW 6 9 3 5 1016.7 1014.8 0.0
03/08:44am 19.8 21.6 19.6 99 0.1 WSW 9 13 5 7 1016.6 1014.7 0.0
03/08:30am 20.3 22.7 20.0 98 0.2 SSW 7 11 4 6 1016.4 1014.5 0.0
03/08:00am 20.1 22.0 19.8 98 0.2 SW 9 11 5 6 1016.1 1014.2 0.0
03/07:30am 20.0 22.3 19.8 99 0.1 SSW 7 9 4 5 1015.7 1013.9 0.0
03/07:00am 19.8 22.0 19.6 99 0.1 SW 7 9 4 5 1015.3 1013.5 0.0
03/06:30am 19.5 21.2 19.3 99 0.1 WSW 9 11 5 6 1015.1 1013.2 0.0
03/06:00am 19.2 21.1 19.0 99 0.1 SW 7 7 4 4 1014.8 1012.9 0.0
03/05:30am 19.0 20.8 18.8 99 0.1 SW 7 7 4 4 1014.6 1012.7 0.0
03/05:27am 19.0 20.8 18.8 99 0.1 SSW 7 7 4 4 1014.6 1012.7 0.0
03/05:00am 19.0 21.0 18.8 99 0.1 SSW 6 7 3 4 1014.5 1012.6 0.0
03/04:59am 19.0 21.0 18.8 99 0.1 SSW 6 7 3 4 1014.5 1012.6 0.0
03/04:46am 19.4 21.6 19.2 99 0.1 SW 6 7 3 4 1014.5 1012.6 0.0
03/04:30am 19.6 22.7 19.4 99 0.1 WSW 2 7 1 4 1014.5 1012.6 0.0
03/04:00am 19.9 23.0 19.6 98 0.2 N 2 6 1 3 1014.4 1012.5 0.0
03/03:30am 20.0 23.6 19.7 98 0.2 CALM 0 0 0 0 1014.6 1012.7 0.0
03/03:10am 19.9 23.4 19.6 98 0.2 CALM 0 0 0 0 1014.6 1012.7 0.0
03/03:00am 19.9 22.7 19.6 98 0.2 NW 4 7 2 4 1014.6 1012.7 0.0
03/02:30am 20.0 21.9 19.7 98 0.2 WSW 9 11 5 6 1014.7 1012.8 0.0
03/02:00am 20.1 22.0 19.8 98 0.2 W 9 13 5 7 1014.7 1012.8 0.0
03/01:30am 20.2 22.5 19.9 98 0.2 SW 7 11 4 6 1014.7 1012.8 0.0
03/01:00am 20.3 22.7 20.0 98 0.2 W 7 11 4 6 1014.9 1013.0 0.0
03/12:30am 20.3 22.3 20.0 98 0.2 SW 9 11 5 6 1014.8 1012.9 0.0
03/12:00am 20.4 22.0 19.9 97 0.3 WSW 11 15 6 8 1014.9 1013.0 0.0
 
Date/Time
WST
Temp
°C
App
Temp
°C
Dew
Point
Rel
Hum
%
Delta-T
°C
Wind Press
QNH
hPa
Press
MSL
hPa
Rain
since 9 am
mm
Dir
 
Spd
km/h
Gust
km/h
Spd
kts
Gust
kts
02/11:30pm 20.5 22.2 20.2 98 0.2 WSW 11 13 6 7 1015.0 1013.1 0.0
02/11:00pm 20.6 22.8 20.3 98 0.2 WSW 9 11 5 6 1015.0 1013.1 0.0
02/10:30pm 20.5 22.6 20.2 98 0.2 W 9 13 5 7 1015.0 1013.1 0.0
02/10:00pm 20.7 22.1 20.4 98 0.2 WSW 13 17 7 9 1015.0 1013.1 0.0
02/09:30pm 20.5 21.8 20.2 98 0.2 W 13 17 7 9 1015.0 1013.1 0.0
02/09:00pm 20.8 21.5 20.5 98 0.2 WSW 17 20 9 11 1015.0 1013.1 0.0
02/08:30pm 21.2 22.1 20.9 98 0.2 WSW 17 22 9 12 1014.9 1013.0 0.0
02/08:00pm 21.6 23.1 21.3 98 0.2 WSW 15 20 8 11 1014.5 1012.6 0.0
02/07:30pm 21.6 23.1 21.3 98 0.2 WSW 15 20 8 11 1014.1 1012.2 0.0
02/07:10pm 21.6 22.6 21.1 97 0.3 SW 17 22 9 12 1013.7 1011.8 0.0
02/07:00pm 21.8 22.4 21.1 96 0.5 WSW 19 22 10 12 1013.4 1011.6 0.0
02/06:30pm 22.5 23.7 21.5 94 0.7 WSW 17 20 9 11 1012.7 1010.8 0.0
02/06:00pm 23.2 23.4 21.3 89 1.3 WSW 22 28 12 15 1012.3 1010.4 0.0
02/05:30pm 24.5 25.1 21.4 83 2.1 WSW 20 26 11 14 1011.7 1009.8 0.0
02/05:00pm 26.0 25.8 21.2 75 3.2 WSW 24 32 13 17 1011.0 1009.2 0.0
02/04:30pm 29.6 28.2 18.7 52 7.1 WNW 24 33 13 18 1010.6 1008.7 0.0
02/04:00pm 30.0 28.6 18.8 51 7.4 WNW 24 32 13 17 1010.3 1008.4 0.0
02/03:30pm 30.3 29.2 18.7 50 7.6 NW 22 28 12 15 1010.1 1008.2 0.0
02/03:00pm 30.5 29.3 19.2 51 7.5 WNW 24 33 13 18 1010.3 1008.4 0.0
02/02:30pm 30.2 28.6 18.3 49 7.8 NW 24 33 13 18 1010.3 1008.4 0.0
02/02:00pm 30.4 29.0 18.8 50 7.6 NW 24 35 13 19 1010.4 1008.5 0.0
02/01:30pm 29.8 29.2 19.8 55 6.7 NW 22 32 12 17 1010.5 1008.6 0.0
02/01:00pm 29.0 28.5 19.0 54 6.6 NNW 20 28 11 15 1010.7 1008.8 0.0
02/12:30pm 28.9 28.8 19.5 57 6.2 NNW 19 28 10 15 1011.2 1009.3 0.0
02/12:00pm 28.3 27.5 19.2 57 6.0 NNW 22 35 12 19 1011.6 1009.7 0.0
02/11:30am 28.0 27.4 20.6 64 5.0 NW 24 32 13 17 1011.8 1009.9 0.0
02/11:00am 27.7 26.3 20.5 65 4.8 NNW 28 37 15 20 1012.2 1010.3 0.0
02/10:30am 27.7 27.6 20.8 66 4.6 NNW 22 30 12 16 1012.5 1010.6 0.0
02/10:00am 24.8 28.0 21.7 83 2.1 N 7 11 4 6 1012.8 1010.9 0.0
02/09:30am 23.2 26.1 22.4 95 0.5 NE 11 17 6 9 1013.1 1011.3 0.0
02/09:00am 21.8 23.4 21.5 98 0.2 NE 15 20 8 11 1013.0 1011.1 6.6
02/08:30am 21.2 22.5 20.9 98 0.2 NE 15 22 8 12 1012.7 1010.8 6.6
02/08:00am 20.0 20.4 19.8 99 0.1 NE 17 20 9 11 1012.7 1010.8 6.6
02/07:30am 19.2 19.2 19.0 99 0.1 ENE 17 22 9 12 1012.4 1010.5 6.6
02/07:00am 18.3 17.9 18.1 99 0.1 ENE 17 22 9 12 1012.1 1010.2 6.6
02/06:56am 18.2 17.4 18.0 99 0.1 ENE 19 22 10 12 1012.0 1010.1 6.6
02/06:30am 18.2 18.5 18.0 99 0.1 NE 13 17 7 9 1012.1 1010.2 6.4
02/06:17am 18.7 18.8 18.4 98 0.2 NE 15 19 8 10 1012.0 1010.1 6.4
02/06:00am 19.3 19.4 18.3 94 0.6 NE 15 24 8 13 1011.7 1009.8 6.4
02/05:30am 19.4 17.8 17.4 88 1.2 ENE 22 28 12 15 1011.2 1009.3 6.4
02/05:00am 19.3 18.1 17.4 89 1.2 ENE 20 30 11 16 1011.2 1009.3 6.4
02/04:30am 19.4 17.2 16.8 85 1.6 ENE 24 32 13 17 1011.2 1009.3 6.4
02/04:00am 19.5 16.6 16.2 81 2.0 ENE 26 37 14 20 1011.2 1009.3 6.4
02/03:30am 19.7 16.2 15.6 77 2.5 ENE 28 37 15 20 1011.2 1009.3 6.4
02/03:00am 19.9 17.5 15.3 75 2.8 ENE 22 28 12 15 1011.3 1009.4 6.4
02/02:30am 20.2 16.5 15.0 72 3.1 NE 28 35 15 19 1011.3 1009.4 6.4
02/02:00am 20.6 16.4 14.7 69 3.5 NE 30 39 16 21 1011.4 1009.5 6.4
02/01:30am 20.5 16.3 14.6 69 3.5 NE 30 37 16 20 1011.5 1009.6 6.4
02/01:00am 20.3 15.2 14.9 71 3.2 NE 35 46 19 25 1011.7 1009.8 6.4
02/12:30am 20.2 15.7 14.8 71 3.2 NE 32 41 17 22 1012.0 1010.1 6.4
02/12:00am 19.9 16.6 15.1 74 2.9 ENE 26 37 14 20 1012.4 1010.5 6.4
 
Date/Time
WST
Temp
°C
App
Temp
°C
Dew
Point
Rel
Hum
%
Delta-T
°C
Wind Press
QNH
hPa
Press
MSL
hPa
Rain
since 9 am
mm
Dir
 
Spd
km/h
Gust
km/h
Spd
kts
Gust
kts
01/11:30pm 18.0 18.2 16.7 92 0.8 ENE 11 19 6 10 1012.8 1010.9 6.4
01/11:00pm 17.3 18.0 17.0 98 0.2 E 9 13 5 7 1013.0 1011.1 6.4
01/10:30pm 16.4 16.0 16.2 99 0.1 E 13 15 7 8 1013.1 1011.3 6.2
01/10:00pm 16.3 15.9 16.1 99 0.1 SE 13 17 7 9 1013.3 1011.5 5.8
01/09:30pm 16.2 16.5 16.0 99 0.1 SE 9 11 5 6 1013.9 1012.0 5.6
01/09:00pm 16.1 15.6 15.8 98 0.2 ESE 13 15 7 8 1013.7 1011.8 5.4
01/08:30pm 16.3 15.1 15.0 92 0.8 ESE 15 20 8 11 1014.1 1012.2 4.8
01/08:06pm 16.6 14.3 14.6 88 1.2 ESE 20 26 11 14 1013.6 1011.7 3.6
01/08:00pm 16.6 14.9 14.6 88 1.2 SSE 17 26 9 14 1013.7 1011.8 3.6
01/07:43pm 18.3 16.4 11.8 66 3.6 NNE 13 22 7 12 1014.9 1013.0 2.2
01/07:41pm 19.3 17.2 11.3 60 4.5 ENE 13 24 7 13 1014.7 1012.8 1.8

Other Formats:

Comma delimited format used in spreadsheet applications
http://www.bom.gov.au/fwo/IDW60801/IDW60801.94316.axf

JavaScript Object Notation format (JSON) in row-major order
http://www.bom.gov.au/fwo/IDW60801/IDW60801.94316.json